createdAt,value
2023-02-13T00:04:35.512Z,101991.20
2023-02-13T00:07:53.624Z,101989.39
2023-02-13T00:12:41.737Z,101990.89
2023-02-13T00:16:41.315Z,101992.13
2023-02-13T00:20:46.255Z,101994.20
2023-02-13T00:24:18.307Z,101999.30
2023-02-13T00:29:34.294Z,101986.34
2023-02-13T00:33:29.403Z,101975.23
2023-02-13T00:37:27.109Z,101973.77
2023-02-13T00:41:24.209Z,101976.48
2023-02-13T00:45:19.284Z,101975.00
2023-02-13T00:49:17.602Z,101985.77
2023-02-13T00:53:15.775Z,101989.17
2023-02-13T00:57:11.029Z,101986.39
2023-02-13T01:01:27.194Z,101983.18
2023-02-13T01:04:48.057Z,101994.39
2023-02-13T01:08:43.486Z,101993.83
2023-02-13T01:11:30.407Z,101987.61
2023-02-13T01:14:16.719Z,101979.33
2023-02-13T01:17:03.337Z,101982.84
2023-02-13T01:19:50.267Z,101985.73
2023-02-13T01:24:16.315Z,101980.23
2023-02-13T01:27:35.156Z,101980.79
2023-02-13T01:31:38.110Z,101975.70
2023-02-13T01:35:35.452Z,101970.17
2023-02-13T01:39:33.136Z,101968.80
2023-02-13T01:43:45.476Z,101969.00
2023-02-13T01:48:10.789Z,101970.77
2023-02-13T01:51:43.664Z,101972.27
2023-02-13T01:55:50.630Z,101969.10
2023-02-13T01:59:50.703Z,101968.42
2023-02-13T02:03:52.431Z,101974.29
2023-02-13T02:07:50.250Z,101973.05
2023-02-13T02:11:59.475Z,101974.39
2023-02-13T02:15:56.644Z,101967.70
2023-02-13T02:20:03.008Z,101967.48
2023-02-13T02:24:12.133Z,101961.63
2023-02-13T02:28:53.624Z,101967.48
2023-02-13T02:33:01.121Z,101967.88
2023-02-13T02:37:17.887Z,101964.95
2023-02-13T02:41:41.784Z,101957.92
2023-02-13T02:46:11.060Z,101960.80
2023-02-13T02:50:33.112Z,101961.86
2023-02-13T02:54:59.051Z,101970.31
2023-02-13T02:59:22.562Z,101977.30
2023-02-13T03:03:43.767Z,101973.00
2023-02-13T03:08:07.307Z,101973.79
2023-02-13T03:12:24.353Z,101972.92
2023-02-13T03:16:44.643Z,101966.98
2023-02-13T03:21:14.449Z,101965.02
2023-02-13T03:25:37.451Z,101961.90
2023-02-13T03:30:00.773Z,101956.02
2023-02-13T03:34:07.048Z,101951.71
2023-02-13T03:38:34.048Z,101952.30
2023-02-13T03:42:39.482Z,101954.66
2023-02-13T03:46:43.281Z,101958.33
2023-02-13T03:50:43.153Z,101955.98
2023-02-13T03:55:07.736Z,101961.00
2023-02-13T03:59:16.188Z,101958.68
2023-02-13T04:03:36.072Z,101958.66
2023-02-13T04:07:32.235Z,101953.52
2023-02-13T04:11:35.330Z,101955.98
2023-02-13T04:16:03.115Z,101955.55
2023-02-13T04:20:00.774Z,101954.37
2023-02-13T04:23:55.708Z,101952.80
2023-02-13T04:26:46.879Z,101958.70
2023-02-13T04:33:48.387Z,101955.20
2023-02-13T04:39:11.763Z,101958.17
2023-02-13T04:43:09.679Z,101958.74
2023-02-13T04:47:05.036Z,101960.61
2023-02-13T04:51:03.376Z,101961.33
2023-02-13T04:54:58.572Z,101963.34
2023-02-13T04:58:56.196Z,101957.84
2023-02-13T05:03:12.639Z,101952.41
2023-02-13T05:06:47.735Z,101951.50
2023-02-13T05:10:07.433Z,101946.88
2023-02-13T05:14:04.548Z,101948.63
2023-02-13T05:16:51.485Z,101947.11
2023-02-13T05:19:38.166Z,101947.80
2023-02-13T05:22:43.652Z,101953.59
2023-02-13T05:25:30.365Z,101956.88
2023-02-13T05:30:50.128Z,101950.49
2023-02-13T05:34:47.400Z,101953.33
2023-02-13T05:38:44.890Z,101954.11
2023-02-13T05:42:41.723Z,101950.98
2023-02-13T05:45:28.740Z,101957.51
2023-02-13T05:48:15.110Z,101956.89
2023-02-13T05:51:02.010Z,101966.17
2023-02-13T05:53:48.499Z,101972.64
2023-02-13T05:56:35.100Z,101974.55
2023-02-13T05:59:23.746Z,101980.73
2023-02-13T06:02:11.009Z,101979.35
2023-02-13T06:04:57.398Z,101974.85
2023-02-13T06:09:32.056Z,101978.97
2023-02-13T06:13:28.270Z,101980.23
2023-02-13T06:16:15.905Z,101981.92
2023-02-13T06:19:08.588Z,101983.80
2023-02-13T06:21:55.641Z,101977.34
2023-02-13T06:25:10.189Z,101974.53
2023-02-13T06:27:57.591Z,101974.84
2023-02-13T06:30:44.956Z,101978.24
2023-02-13T06:33:32.584Z,101976.38
2023-02-13T06:36:19.677Z,101973.88
2023-02-13T06:39:06.725Z,101975.79
2023-02-13T06:42:45.556Z,101979.61
2023-02-13T06:45:32.013Z,101982.69
2023-02-13T06:48:18.511Z,101986.67
2023-02-13T06:51:14.020Z,101986.82
2023-02-13T06:55:12.507Z,101985.86
2023-02-13T06:59:08.021Z,101984.89
2023-02-13T07:03:06.673Z,101988.35
2023-02-13T07:07:04.082Z,101976.95
2023-02-13T07:11:02.260Z,101974.73
2023-02-13T07:15:00.921Z,101971.00
2023-02-13T07:18:55.834Z,101973.90
2023-02-13T07:21:42.560Z,101977.68
2023-02-13T07:24:29.016Z,101970.29
2023-02-13T07:27:15.775Z,101967.50
2023-02-13T07:30:02.540Z,101976.45
2023-02-13T07:32:49.475Z,101980.83
2023-02-13T07:35:37.798Z,101981.30
2023-02-13T07:38:24.527Z,101983.64
2023-02-13T07:41:11.142Z,101990.39
2023-02-13T07:43:57.978Z,101992.08
2023-02-13T07:46:44.571Z,101989.83
2023-02-13T07:49:31.059Z,101986.98
2023-02-13T07:53:36.062Z,101982.71
2023-02-13T07:57:04.682Z,101984.02
2023-02-13T07:59:51.463Z,101983.23
2023-02-13T08:02:42.739Z,101990.15
2023-02-13T08:05:32.438Z,101988.38
2023-02-13T08:08:18.884Z,101985.02
2023-02-13T08:11:31.492Z,101985.96
2023-02-13T08:14:18.214Z,101982.06
2023-02-13T08:17:05.022Z,101973.59
2023-02-13T08:21:17.694Z,101974.89
2023-02-13T08:25:13.312Z,101974.27
2023-02-13T08:29:12.570Z,101974.84
2023-02-13T08:44:02.536Z,101969.73
2023-02-13T08:47:07.683Z,101967.23
2023-02-13T09:01:30.413Z,101962.61
2023-02-13T09:23:16.512Z,101966.29
2023-02-13T09:37:42.269Z,101967.89
2023-02-13T09:40:56.528Z,101970.29
2023-02-13T09:43:49.508Z,101968.83
2023-02-13T09:46:39.082Z,101969.54
2023-02-13T09:49:30.544Z,101966.25
2023-02-13T09:54:59.235Z,101962.84
2023-02-13T09:58:45.836Z,101971.88
2023-02-13T10:13:22.837Z,101981.45
2023-02-13T10:16:51.065Z,101986.54
2023-02-13T10:20:57.582Z,101990.23
2023-02-13T10:35:01.002Z,101979.55
2023-02-13T10:37:59.952Z,101979.19
2023-02-13T10:42:09.423Z,101975.66
2023-02-13T10:45:25.544Z,101971.20
2023-02-13T10:48:46.325Z,101961.83
2023-02-13T10:51:40.046Z,101955.08
2023-02-13T10:56:06.877Z,101947.39
2023-02-13T11:09:59.300Z,101946.66
2023-02-13T11:27:13.079Z,101937.36
2023-02-13T11:30:34.427Z,101935.81
2023-02-13T11:44:40.686Z,101923.54
2023-02-13T11:47:38.918Z,101909.59
2023-02-13T11:50:32.606Z,101909.58
2023-02-13T11:53:27.159Z,101907.98
2023-02-13T11:57:03.995Z,101908.91
2023-02-13T12:42:09.459Z,101873.68
2023-02-13T12:56:40.498Z,101846.84
2023-02-13T13:10:28.423Z,101832.83
2023-02-13T13:14:00.906Z,101833.23
2023-02-13T13:18:05.307Z,101814.69
2023-02-13T13:22:28.493Z,101811.39
2023-02-13T13:26:40.549Z,101819.17
2023-02-13T13:30:58.164Z,101812.52
2023-02-13T13:34:22.857Z,101811.05
2023-02-13T13:38:42.232Z,101808.09
2023-02-13T13:42:47.842Z,101815.89
2023-02-13T13:47:00.336Z,101807.74
2023-02-13T13:50:30.379Z,101814.79
2023-02-13T13:54:34.960Z,101805.44
2023-02-13T13:58:47.548Z,101795.60
2023-02-13T14:18:13.735Z,101793.20
2023-02-13T14:32:36.740Z,101782.16
2023-02-13T14:36:03.994Z,101792.98
2023-02-13T14:39:21.902Z,101799.70
2023-02-13T14:42:27.985Z,101802.80
2023-02-13T14:45:27.356Z,101794.67
2023-02-13T14:48:14.592Z,101787.94
2023-02-13T14:52:03.208Z,101779.22
2023-02-13T14:55:38.131Z,101786.05
2023-02-13T15:00:04.281Z,101777.79
2023-02-13T15:55:31.830Z,101760.44
2023-02-13T16:09:32.635Z,101769.59
2023-02-13T16:23:07.374Z,101761.27
2023-02-13T16:26:04.106Z,101754.02
2023-02-13T17:16:56.392Z,101789.09
2023-02-13T17:30:52.399Z,101785.14
2023-02-13T17:34:19.774Z,101779.40
2023-02-13T17:37:32.273Z,101785.55
2023-02-13T17:40:20.629Z,101780.60
2023-02-13T17:43:30.451Z,101782.98
2023-02-13T18:01:32.990Z,101807.36
2023-02-13T18:16:15.457Z,101821.20
2023-02-13T18:19:01.003Z,101825.93
2023-02-13T18:21:46.129Z,101830.20
2023-02-13T18:24:32.659Z,101829.51
2023-02-13T18:34:57.463Z,101836.02
2023-02-13T18:37:44.072Z,101833.23
2023-02-13T18:40:30.560Z,101825.41
2023-02-13T18:43:16.905Z,101817.19
2023-02-13T18:46:04.866Z,101817.55
2023-02-13T18:50:11.868Z,101824.57
2023-02-13T18:54:09.303Z,101818.88
2023-02-13T18:58:07.675Z,101818.11
2023-02-13T19:02:23.936Z,101826.67
2023-02-13T19:05:43.388Z,101834.94
2023-02-13T19:08:30.322Z,101833.90
2023-02-13T19:11:31.409Z,101835.43
2023-02-13T19:14:17.744Z,101830.86
2023-02-13T19:17:04.683Z,101828.64
2023-02-13T19:19:51.784Z,101835.72
2023-02-13T19:33:25.962Z,101838.34
2023-02-13T19:36:53.841Z,101843.80
2023-02-13T19:50:26.842Z,101853.96
2023-02-13T19:53:25.901Z,101855.95
2023-02-13T19:57:23.087Z,101862.02
2023-02-13T20:26:06.010Z,101857.23
2023-02-13T20:53:17.067Z,101842.96
2023-02-13T21:01:41.508Z,101845.81
2023-02-13T21:34:59.343Z,101841.30
2023-02-13T21:49:39.185Z,101827.11
2023-02-13T22:08:15.740Z,101812.63
2023-02-13T22:11:27.388Z,101812.75
2023-02-13T22:16:41.582Z,101817.23
2023-02-13T22:20:40.834Z,101822.21
2023-02-13T22:24:37.903Z,101827.75
2023-02-13T22:28:34.216Z,101826.57
2023-02-13T22:32:32.691Z,101827.50
2023-02-13T22:36:31.542Z,101830.52
2023-02-13T22:40:26.586Z,101827.16
2023-02-13T22:44:24.965Z,101828.67
2023-02-13T22:59:11.310Z,101823.56
2023-02-13T23:02:06.234Z,101817.75
2023-02-13T23:06:04.460Z,101823.91
2023-02-13T23:10:04.642Z,101832.27
2023-02-13T23:14:02.699Z,101831.91
2023-02-13T23:18:15.050Z,101837.30
2023-02-13T23:32:38.513Z,101850.56
2023-02-13T23:35:34.402Z,101846.98
2023-02-13T23:39:43.224Z,101846.21
2023-02-13T23:43:10.028Z,101842.41
2023-02-13T23:47:06.580Z,101832.62
2023-02-13T23:51:04.988Z,101826.14
2023-02-13T23:55:00.169Z,101823.27
2023-02-13T23:59:16.152Z,101822.91
